Terminal Aerodrome Forecast
Issued by NWS

Home | Current Version | Previous Version | Text Only | Print | Product List | Glossary On
Versions: 1 2 3 4 5 6 7 8 9 10 11 12 13 14 15 16 17 18 19 20 21
886
FTUS41 KBGM 231201 AAA
TAFELM
TAF AMD
KELM 231201Z 2312/2412 VRB03KT P6SM SCT200
      TEMPO 2312/2313 BKN004
     FM232000 14004KT P6SM BKN120
     FM240700 00000KT 5SM BR SCT150
     FM240900 00000KT 2SM BR SCT150=

USA.gov is the U.S. government's official web portal to all federal, state and local government web resources and services.